KAUM/AUM METAR and TAF weather

Enter ICAO airport designator
Station Type Date Time Source
KAUM METAR 2021/09/27 06:35 UTC NOAA

KAUM 270635Z AUTO 00000KT 10SM CLR 14/12 A2972 RMK AO2


Station Type Date Time Source
KAUM Decoded METAR 2021/09/27 06:35 UTC NOAA

Austin Municipal, MN, United States (KAUM) 43-40N 092-56W
Sep 27, 2021 - 02:35 AM EDT / 2021.09.27 0635 UTC
Wind: Calm:0
Visibility: 10 mile(s):0
Sky conditions: clear
Temperature: 57 F (14 C)
Dew Point: 53 F (12 C)
Relative Humidity: 87%
Pressure (altimeter): 29.72 in. Hg (1006 hPa)
ob: KAUM 270635Z AUTO 00000KT 10SM CLR 14/12 A2972 RMK AO2
cycle: 6

Station Type Date Time Source
KAUM TAF UTC NOAA

Error!

Example: see airport list